Detalii statie UNIC PROD [00001D09]

Toti senzorii

Date Temperatura solului [C]Precipitatii [mm]Voltaj baterie [mV]Leaf Wetness [Min]HC Air temperature [C]HC Relative humidity [%]Punctul de roua [C]
medieminmaxsumaultimatimpmedieminmaxmediemediemin
2018-06-20 10:00:00 19.2 19.1 19.4 0 7226 30.42 29.67 30.95 41.09 15.4 14.3
2018-06-20 11:00:00 19.3 19.1 19.5 0 7226 31.58 30.77 32.24 36.4 14.6 13.3
2018-06-20 12:00:00 19.4 19.2 19.7 0 7226 32.04 30.58 33.05 32.68 13.2 12.1
2018-06-20 13:00:00 19.5 19.4 19.7 0 7226 32.86 30.9 33.62 29.59 12.4 11.3
2018-06-20 14:00:00 19.7 19.7 19.9 0 7216 33.26 31.98 34.14 27.39 11.5 10.3
2018-06-20 15:00:00 19.9 19.8 20 0 7216 33.96 33.61 34.44 25.22 10.9 9.7
2018-06-20 16:00:00 20 20 20.3 0 7050 33.54 32.29 34.33 26.94 11.6 9.8
2018-06-20 17:00:00 20.2 20.1 20.4 0 7196 32.67 31.02 33.61 28.96 12 10.5
2018-06-20 18:00:00 20.3 20.2 20.5 0 7000 32.23 31.41 33 27.49 10.7 9.3
2018-06-20 19:00:00 20.4 20.3 20.5 0 6864 29.91 28.7 31.09 37.5 13.6 12.8
2018-06-20 20:00:00 20.5 20.5 20.7 0 6854 26.37 23.71 28.43 55.06 16.3 13.9
2018-06-20 21:00:00 20.5 20.3 20.9 0 6844 23.37 22.37 24.17 60.03 14.9 13.9
2018-06-20 22:00:00 20.5 20.5 20.9 0 6834 21.89 21.08 22.66 66.41 15.1 14.5
2018-06-20 23:00:00 20.5 20.5 20.6 0 6834 20.76 19.72 22.27 74.74 15.8 14.7
2018-06-21 00:00:00 20.4 20.3 20.5 0 6826 18.53 17.8 19.59 97.12 17.9 17.3
2018-06-21 01:00:00 20.3 20.2 20.5 0 6816 18.01 17.5 18.41 99.5 17.8 17.5
2018-06-21 02:00:00 20.2 20 20.4 0 6816 17.65 17.04 18.32 99.57 17.5 17
2018-06-21 03:00:00 20.1 19.9 20.3 0 6816 17.37 17.1 17.71 100 17.3 17.1
2018-06-21 04:00:00 20 19.9 20.1 0 6806 17.21 17.04 17.48 100 17.1 17
2018-06-21 05:00:00 19.8 19.8 20 0 6806 17.98 17.44 18.56 100 17.9 17.4
2018-06-21 06:00:00 19.8 19.7 19.9 0 6844 19.53 18.71 20.71 100 19.5 18.7
2018-06-21 07:00:00 19.6 19.6 19.8 0 6904 22.21 20.68 24.13 94.36 21.1 20.6
2018-06-21 08:00:00 19.6 19.5 19.7 0 7020 24.76 23.69 26.35 79.13 20.7 20.3
2018-06-21 09:00:00 19.5 19.5 19.7 0 7216 26.69 26.43 27.18 66.33 19.7 18.8
2018-06-21 10:00:00 19.6 19.5 19.8 0 7226 28.28 27.56 29.32 55.32 18.2 16.9
2018-06-21 11:00:00 19.7 19.7 19.9 0 7216 28.76 28.06 29.83 57.77 19.3 17.6
2018-06-21 12:00:00 19.8 19.8 20.1 0 7216 27.12 26.45 28.59 59.14 18.2 17.4
2018-06-21 13:00:00 20 19.9 20.2 0 7216 26.02 25.54 27.2 69.38 19.8 19
2018-06-21 14:00:00 20.1 20 20.2 0 6952 25.75 25.48 26.21 70.75 19.9 19.3
2018-06-21 15:00:00 20.1 20 20.3 0 7216 25.71 25.47 26.43 76.15 21 19.3
2018-06-21 16:00:00 20.1 20 20.3 0 7010 25.95 25.38 26.35 82.1 22.5 22.1
2018-06-21 17:00:00 20.2 20 20.5 0 7216 24.69 24.56 25.01 93.85 23.4 22.9
2018-06-21 18:00:00 20.2 20.2 20.4 0 7216 24.4 24.23 24.83 95.74 23.5 23.3
2018-06-21 19:00:00 20.2 20.1 20.4 0 7206 24.7 24.33 24.95 89.92 22.8 22.1
2018-06-21 20:00:00 20.3 20.2 20.4 0 6874 24.1 22.78 25 92.78 22.6 22.3
2018-06-21 21:00:00 20.3 20.2 20.4 0 6864 21.5 20.87 22.52 100 21.4 20.8
2018-06-21 22:00:00 20.3 20.3 20.4 0 6844 20.36 19.84 20.85 100 20.3 19.8
2018-06-21 23:00:00 20.2 20.2 20.4 0 6844 19.56 19.29 19.82 100 19.5 19.2
2018-06-22 00:00:00 20.2 20.1 20.5 0 6834 19.52 19.21 19.91 100 19.5 19.2
2018-06-22 01:00:00 20.1 20 20.3 0 6826 18.97 18.31 19.88 100 18.9 18.3
2018-06-22 02:00:00 20 20 20.3 0 6826 18.42 17.78 19.23 100 18.3 17.7
2018-06-22 03:00:00 20 19.9 20.1 0 6816 17.7 17.18 18.25 100 17.6 17.1
2018-06-22 04:00:00 19.9 19.8 20 0 6806 18.9 18.32 19.13 100 18.8 18.3
2018-06-22 05:00:00 19.8 19.6 20 0.2 6806 18.15 17.66 18.53 100 18.1 17.6
2018-06-22 06:00:00 19.7 19.6 19.9 0 6834 18.91 17.9 20.1 100 18.8 17.9
2018-06-22 07:00:00 19.7 19.6 19.8 0 6884 21.26 20.02 22.59 100 21.2 20
2018-06-22 08:00:00 19.6 19.5 19.7 0 6932 23.95 22.6 24.96 93.24 22.6 21.9
2018-06-22 09:00:00 19.5 19.5 19.7 0 7216 26.2 25.39 26.75 81.35 22.5 22.1